»·PEaware :: PSA1169 KPSP-KLAS

PSA1169 :: KPSP-KLAS

FLIGHT INFORMATION

Flight Status: Arrived
Operator:
Pacific Southwest Airlines
More flights by this operator :: More flights under this callsign
Pilot: Austin W. (7615)
Aircraft: BOEING 727-200
(B722)
More flights by this aircraft type
Origin: KPSP Palm Springs Intl
United States
Destination: KLAS McCarran Intl
United States
More flights between these airports :: More routes between these airports
Route: CATH1 PSP V370 TNP KEPEC6
File this flight plan on PilotEdge
Remarks:
Altitude:
(Current/Filed)
25,000ft
Speed:
(Current/Filed)
406kts
Departed: 03-Jan-21 10:34 AM
Arrived: 03-Jan-21 11:24 AM
Distance/Time
Traveled:
151nm/0:50
Distance/Time
To Go:
Arrived

Flight Plot

Page will automatically refresh every two minutes.

Flight plan parsing failed; only flown route is shown


Map Options




Map Legend


Flown Route
Filed Route
Departure Airport
Arrival Airport
Navaid (VOR, NDB)
Fix

Horizontal Profiles

Position Reports

Time Latitude Longitude Heading Altitude Ground
Speed
03-Jan-21 10:15 33.823115 -116.505640 272 489ft 0kts
03-Jan-21 10:16 33.823115 -116.505640 272 489ft 0kts
03-Jan-21 10:17 33.823115 -116.505640 272 489ft 0kts
03-Jan-21 10:18 33.823115 -116.505640 272 489ft 0kts
03-Jan-21 10:19 33.823115 -116.505641 272 489ft 0kts
03-Jan-21 10:20 33.823115 -116.505641 272 489ft 0kts
03-Jan-21 10:21 33.823115 -116.505641 272 489ft 0kts
03-Jan-21 10:22 33.823115 -116.505641 272 489ft 0kts
03-Jan-21 10:23 33.823115 -116.505641 272 489ft 0kts
03-Jan-21 10:24 33.823106 -116.505534 273 489ft 2kts
03-Jan-21 10:25 33.823545 -116.505169 162 489ft 2kts
03-Jan-21 10:26 33.823693 -116.505268 143 489ft 0kts
03-Jan-21 10:27 33.823693 -116.505268 143 489ft 0kts
03-Jan-21 10:28 33.823693 -116.505268 143 489ft 0kts
03-Jan-21 10:29 33.823033 -116.504527 98 489ft 8kts
03-Jan-21 10:31 33.820145 -116.501184 143 489ft 18kts
03-Jan-21 10:32 33.818524 -116.499157 94 489ft 0kts
03-Jan-21 10:33 33.818774 -116.498211 22 488ft 8kts
03-Jan-21 10:34 33.831217 -116.509077 323 491ft 165kts
03-Jan-21 10:35 33.873554 -116.547400 322 3290ft 198kts
03-Jan-21 10:36 33.921264 -116.580769 12 5835ft 215kts
03-Jan-21 10:37 33.980440 -116.543971 36 7447ft 278kts
03-Jan-21 10:38 34.005035 -116.453499 80 10301ft 302kts
03-Jan-21 10:39 34.015305 -116.348934 79 12405ft 333kts
03-Jan-21 10:40 34.032628 -116.231935 74 13009ft 363kts
03-Jan-21 10:41 34.056021 -116.112196 73 13003ft 370kts
03-Jan-21 10:42 34.077023 -115.990537 75 14940ft 368kts
03-Jan-21 10:43 34.096058 -115.869462 72 17001ft 370kts
03-Jan-21 10:44 34.125104 -115.749316 67 18670ft 378kts
03-Jan-21 10:45 34.202273 -115.678260 37 19880ft 370kts
03-Jan-21 10:45 34.260812 -115.600818 36 20962ft 377kts
03-Jan-21 10:47 34.351919 -115.499882 37 22475ft 386kts
03-Jan-21 10:48 34.448342 -115.458796 3 23518ft 372kts
03-Jan-21 10:48 34.533875 -115.442596 5 24418ft 378kts
03-Jan-21 10:49 34.637071 -115.409599 8 25255ft 390kts
03-Jan-21 10:51 34.864508 -115.376958 0 25315ft 436kts
03-Jan-21 10:52 34.986626 -115.361548 0 25312ft 440kts
03-Jan-21 10:53 35.103260 -115.346010 1 25146ft 397kts
03-Jan-21 10:54 35.209276 -115.330690 1 24311ft 358kts
03-Jan-21 10:55 35.302562 -115.331810 325 22558ft 334kts
03-Jan-21 10:57 35.386459 -115.414460 321 20077ft 325kts
03-Jan-21 10:57 35.446191 -115.469005 322 17283ft 319kts
03-Jan-21 10:58 35.516847 -115.533298 322 15026ft 314kts
03-Jan-21 10:59 35.584976 -115.598134 321 13377ft 309kts
03-Jan-21 11:00 35.654444 -115.638996 14 12989ft 273kts
03-Jan-21 11:01 35.722943 -115.593535 26 13013ft 287kts
03-Jan-21 11:02 35.796452 -115.551539 356 13014ft 292kts
03-Jan-21 11:03 35.876807 -115.559690 351 13119ft 279kts
03-Jan-21 11:04 35.953739 -115.569323 352 11635ft 278kts
03-Jan-21 11:05 36.013448 -115.528400 69 10966ft 284kts
03-Jan-21 11:06 36.031226 -115.430695 77 10977ft 300kts
03-Jan-21 11:07 36.037398 -115.326677 91 10690ft 296kts
03-Jan-21 11:08 36.025791 -115.226868 100 9481ft 290kts
03-Jan-21 11:09 36.020536 -115.131217 58 8256ft 279kts
03-Jan-21 11:10 36.083166 -115.087360 21 7943ft 248kts
03-Jan-21 11:11 36.148564 -115.055100 21 7970ft 264kts
03-Jan-21 11:12 36.212713 -115.023522 21 5787ft 243kts
03-Jan-21 11:13 36.255933 -115.057251 255 5463ft 238kts
03-Jan-21 11:14 36.203487 -115.100802 196 4935ft 233kts
03-Jan-21 11:15 36.144160 -115.127658 204 3346ft 214kts
03-Jan-21 11:16 36.093710 -115.156581 203 2646ft 207kts
03-Jan-21 11:17 36.059079 -115.207849 294 3696ft 236kts
03-Jan-21 11:18 36.117984 -115.210942 26 3990ft 233kts
03-Jan-21 11:19 36.172411 -115.177367 30 3495ft 194kts
03-Jan-21 11:20 36.172447 -115.132599 183 3031ft 159kts
03-Jan-21 11:21 36.129071 -115.140348 189 2848ft 156kts
03-Jan-21 11:22 36.090368 -115.158321 204 2191ft 131kts
03-Jan-21 11:23 36.078030 -115.163865 92 2190ft 6kts
03-Jan-21 11:24 36.078037 -115.158438 89 2190ft 20kts
03-Jan-21 11:25 36.078192 -115.151606 59 2190ft 18kts
03-Jan-21 11:26 36.079669 -115.147476 62 2190ft 0kts
03-Jan-21 11:27 36.079876 -115.147066 56 2190ft 0kts
03-Jan-21 11:28 36.079876 -115.147067 56 2190ft 0kts

Navigation Log

Ident Type
Flight plan parsing failed, navigation log unavailable